September 24, 2022

Time Code Weather Temp. Visibility Ceiling Wind METAR/SPECI
7:53 am
V
55 °F 10 mi - Var 000° 0 kt METAR KFHR 241453Z AUTO 00000KT 10SM FEW050 13/12 A3025 RMK AO2 SLP242 T01330117 53012 $
6:53 am
V
55 °F 10 mi 4,700 ft Var 000° 0 kt METAR KFHR 241353Z AUTO 00000KT 10SM OVC047 13/12 A3023 RMK AO2 SLP237 T01280117 $
5:53 am
V
54 °F 10 mi 4,500 ft Var 000° 0 kt METAR KFHR 241253Z AUTO 00000KT 10SM OVC045 12/11 A3022 RMK AO2 SLP232 T01220111 $
4:53 am
V
54 °F 10 mi 4,200 ft Var 000° 0 kt METAR KFHR 241153Z AUTO 00000KT 10SM OVC042 12/11 A3021 RMK AO2 SLP230 T01170111 10139 20100 50004 $
3:53 am
V
52 °F 10 mi 4,300 ft Var 000° 0 kt METAR KFHR 241053Z AUTO 00000KT 10SM OVC043 11/10 A3021 RMK AO2 SLP231 T01060100 $
2:53 am
V
52 °F 10 mi - Var 000° 0 kt METAR KFHR 240953Z AUTO 00000KT 10SM CLR 11/10 A3021 RMK AO2 SLP231 T01060100 $
1:53 am
V
54 °F 10 mi - Var 000° 0 kt METAR KFHR 240853Z AUTO 00000KT 10SM CLR 12/11 A3020 RMK AO2 SLP226 T01170106 53004 $
12:53 am
V
55 °F 10 mi 6,000 ft Var 000° 0 kt METAR KFHR 240753Z AUTO 00000KT 10SM OVC060 13/11 A3019 RMK AO2 SLP222 T01280111 401940122 $

September 23, 2022

Time Code Weather Temp. Visibility Ceiling Wind METAR/SPECI
11:53 pm
V
55 °F 10 mi 6,000 ft Var 000° 0 kt METAR KFHR 240653Z AUTO 00000KT 10SM OVC060 13/12 A3019 RMK AO2 SLP222 T01330122 $
10:53 pm
V
55 °F 10 mi 6,500 ft Var 000° 0 kt METAR KFHR 240553Z AUTO 00000KT 10SM SCT046 BKN065 13/11 A3019 RMK AO2 SLP222 T01330111 10183 20133 51009 $
9:53 pm
V
57 °F 10 mi 4,000 ft Var 000° 0 kt METAR KFHR 240453Z AUTO 00000KT 10SM OVC040 14/11 A3018 RMK AO2 SLP221 T01440111 $
8:53 pm
V
57 °F 10 mi - 010° 010° 3 kt METAR KFHR 240353Z AUTO 01003KT 10SM FEW037 SCT049 14/11 A3017 RMK AO2 SLP216 T01390106 $
7:53 pm
V
61 °F 10 mi - 260° 260° 3 kt METAR KFHR 240253Z AUTO 26003KT 10SM SCT047 SCT055 16/11 A3016 RMK AO2 SLP213 T01610106 53001 $
6:53 pm
V
63 °F 10 mi 4,700 ft Var 000° 0 kt METAR KFHR 240153Z AUTO 00000KT 10SM BKN047 OVC065 17/11 A3016 RMK AO2 SLP212 T01720111
5:53 pm
V
64 °F 10 mi 7,000 ft Var 000° 0 kt METAR KFHR 240053Z AUTO 00000KT 10SM SCT048 OVC070 18/11 A3015 RMK AO2 SLP210 T01780111
4:53 pm
V
64 °F 10 mi 4,700 ft Var 000° 0 kt METAR KFHR 232353Z AUTO 00000KT 10SM OVC047 18/11 A3016 RMK AO2 SLP212 60000 T01830111 10194 20161 55003
3:53 pm
V
66 °F 10 mi 4,600 ft 100° 100° 3 kt METAR KFHR 232253Z AUTO 10003KT 10SM BKN046 OVC060 19/11 A3015 RMK AO2 SLP211 T01890111
2:53 pm
V
66 °F 10 mi 4,600 ft Var Var 4 kt METAR KFHR 232153Z AUTO VRB04KT 10SM BKN046 BKN075 OVC090 19/11 A3016 RMK AO2 SLP213 T01940111
1:53 pm
V
64 °F 10 mi 6,000 ft 100° 100° 4 kt METAR KFHR 232053Z AUTO 10004KT 10SM BKN060 OVC070 18/12 A3017 RMK AO2 RAB28E39 SLP215 P0000 60000 T01830122 58002
12:53 pm
V
64 °F 10 mi 5,500 ft 170° 170° 6 kt METAR KFHR 231953Z AUTO 17006KT 10SM OVC055 18/12 A3017 RMK AO2 SLP217 T01830122
11:53 am
V
64 °F 10 mi 5,500 ft 160° 160° 5 kt METAR KFHR 231853Z AUTO 16005KT 10SM OVC055 18/12 A3018 RMK AO2 SLP219 T01780122
10:53 am
V
63 °F 10 mi 5,000 ft 160° 160° 6 kt METAR KFHR 231753Z AUTO 16006KT 10SM OVC050 17/12 A3017 RMK AO2 SLP217 60000 T01670122 10167 20122 51009
9:53 am
V
61 °F 10 mi 5,500 ft 150° 150° 4 kt METAR KFHR 231653Z AUTO 15004KT 10SM OVC055 16/12 A3017 RMK AO2 SLP216 T01560122
8:53 am
V
57 °F 10 mi 6,000 ft Var 000° 0 kt METAR KFHR 231553Z AUTO 00000KT 10SM OVC060 14/12 A3016 RMK AO2 SLP213 T01390117
7:53 am
V
55 °F 10 mi 5,500 ft Var 000° 0 kt METAR KFHR 231453Z AUTO 00000KT 10SM OVC055 13/12 A3015 RMK AO2 RAE1357B39E49 SLP208 P0000 60000 T01330117 51009
6:53 am
V
55 °F 10 mi 8,000 ft Var 000° 0 kt METAR KFHR 231353Z AUTO 00000KT 10SM -RA SCT060 BKN080 OVC100 13/11 A3014 RMK AO2 RAB47 SLP205 P0000 T01280111
5:53 am
V
54 °F 10 mi 4,500 ft Var 000° 0 kt METAR KFHR 231253Z AUTO 00000KT 10SM BKN045 OVC060 12/11 A3013 RMK AO2 SLP203 T01220106
4:53 am
V
55 °F 10 mi 4,900 ft Var 000° 0 kt METAR KFHR 231153Z AUTO 00000KT 10SM OVC049 13/11 A3012 RMK AO2 SLP199 T01280111 10128 20111 51004
3:53 am
V
55 °F 10 mi 4,800 ft 150° 150° 5 kt METAR KFHR 231053Z AUTO 15005KT 10SM BKN048 OVC060 13/11 A3012 RMK AO2 SLP198 T01280106
2:53 am
V
54 °F 10 mi 4,400 ft Var 000° 0 kt METAR KFHR 230953Z AUTO 00000KT 10SM OVC044 12/11 A3011 RMK AO2 SLP198 T01220111
1:53 am
V
55 °F 10 mi 4,000 ft Var 000° 0 kt METAR KFHR 230853Z AUTO 00000KT 10SM OVC040 13/11 A3011 RMK AO2 SLP195 T01280111 51007
12:53 am
V
54 °F 10 mi 3,900 ft Var 000° 0 kt METAR KFHR 230753Z AUTO 00000KT 10SM OVC039 12/11 A3010 RMK AO2 SLP194 T01220111 402060089

September 22, 2022

Time Code Weather Temp. Visibility Ceiling Wind METAR/SPECI
11:53 pm
V
54 °F 10 mi 4,200 ft Var 000° 0 kt METAR KFHR 230653Z AUTO 00000KT 10SM OVC042 12/10 A3010 RMK AO2 SLP193 T01220100
10:53 pm
V
52 °F 10 mi - Var 000° 0 kt METAR KFHR 230553Z AUTO 00000KT 10SM CLR 11/08 A3009 RMK AO2 SLP188 T01110083 10194 20106 51007
9:53 pm
V
55 °F 10 mi - Var 000° 0 kt METAR KFHR 230453Z AUTO 00000KT 10SM CLR 13/09 A3008 RMK AO2 SLP186 T01330094
8:53 pm
V
55 °F 10 mi - 270° 270° 3 kt METAR KFHR 230353Z AUTO 27003KT 10SM CLR 13/09 A3008 RMK AO2 SLP185 T01280094
7:53 pm
V
61 °F 10 mi 5,000 ft 260° 260° 3 kt METAR KFHR 230253Z AUTO 26003KT 10SM OVC050 16/10 A3006 RMK AO2 SLP181 T01560100 53006
6:53 pm
V
61 °F 10 mi 5,500 ft 240° 240° 6 kt METAR KFHR 230153Z AUTO 24006KT 10SM OVC055 16/11 A3005 RMK AO2 SLP177 T01610106
5:53 pm
V
64 °F 10 mi - 200° 200° 7 - 16 kt METAR KFHR 230053Z AUTO 20007G16KT 10SM FEW055 18/10 A3005 RMK AO2 SLP175 T01780100
4:53 pm
V
66 °F 10 mi - 170° 170° 9 kt METAR KFHR 222353Z AUTO 17009KT 10SM CLR 19/11 A3005 RMK AO2 SLP175 T01940111 10206 20172 58005
3:53 pm
V
66 °F 10 mi - 160° 160° 11 - 18 kt METAR KFHR 222253Z AUTO 16011G18KT 10SM CLR 19/11 A3005 RMK AO2 SLP177 T01940111
2:53 pm
V
66 °F 10 mi - 150° 150° 11 kt METAR KFHR 222153Z AUTO 15011KT 10SM CLR 19/11 A3006 RMK AO2 SLP178 T01940111
1:53 pm
V
68 °F 10 mi - 170° 170° 11 - 17 kt METAR KFHR 222053Z AUTO 17011G17KT 10SM CLR 20/11 A3006 RMK AO2 SLP179 T02000111 52001
12:53 pm
V
66 °F 10 mi - 150° 150° 10 kt METAR KFHR 221953Z AUTO 15010KT 10SM CLR 19/11 A3006 RMK AO2 SLP178 T01890111
11:53 am
V
64 °F 10 mi - 160° 160° 12 kt METAR KFHR 221853Z AUTO 16012KT 10SM CLR 18/11 A3006 RMK AO2 SLP180 T01830111
10:53 am
V
63 °F 10 mi - 160° 160° 11 - 18 kt METAR KFHR 221753Z AUTO 16011G18KT 10SM CLR 17/11 A3006 RMK AO2 SLP179 T01720111 10172 20111 51012
9:53 am
V
61 °F 10 mi - 160° 160° 10 kt METAR KFHR 221653Z AUTO 16010KT 10SM CLR 16/12 A3005 RMK AO2 SLP177 T01560117
8:53 am
V
57 °F 10 mi - 160° 160° 10 - 17 kt METAR KFHR 221553Z AUTO 16010G17KT 10SM CLR 14/11 A3004 RMK AO2 SLP171 T01390111
7:53 am
V
54 °F 10 mi - 160° 160° 7 kt METAR KFHR 221453Z AUTO 16007KT 10SM CLR 12/11 A3002 RMK AO2 SLP167 T01220111 51015
Older data

We and third parties follow your internet behavior on our website with cookies. If you continue, we assume you agree with our cookie policy. Learn more